sensor_id;sensor_type;location;lat;lon;timestamp;pressure;altitude;pressure_sealevel;temperature;humidity
72024;BME280;59889;50.700;5.440;2023-06-22T00:00:28;100291.14;;;30.28;28.08
72024;BME280;59889;50.700;5.440;2023-06-22T00:02:54;100289.54;;;30.31;28.05
72024;BME280;59889;50.700;5.440;2023-06-22T00:05:20;100288.31;;;30.34;28.00
72024;BME280;59889;50.700;5.440;2023-06-22T00:07:46;100286.23;;;30.06;28.04
72024;BME280;59889;50.700;5.440;2023-06-22T00:10:12;100288.57;;;30.30;28.03
72024;BME280;59889;50.700;5.440;2023-06-22T00:12:38;100284.84;;;30.03;28.07
72024;BME280;59889;50.700;5.440;2023-06-22T00:15:04;100287.12;;;30.05;28.05
72024;BME280;59889;50.700;5.440;2023-06-22T00:17:29;100285.11;;;30.10;27.98
72024;BME280;59889;50.700;5.440;2023-06-22T00:19:55;100281.35;;;30.28;28.04
72024;BME280;59889;50.700;5.440;2023-06-22T00:22:21;100277.23;;;30.59;27.94
72024;BME280;59889;50.700;5.440;2023-06-22T00:24:47;100273.91;;;29.99;28.06
72024;BME280;59889;50.700;5.440;2023-06-22T00:27:12;100271.22;;;30.30;28.01
72024;BME280;59889;50.700;5.440;2023-06-22T00:29:38;100272.74;;;30.30;27.98
72024;BME280;59889;50.700;5.440;2023-06-22T00:32:05;100272.31;;;30.51;28.02
72024;BME280;59889;50.700;5.440;2023-06-22T00:34:30;100269.28;;;30.28;28.00
72024;BME280;59889;50.700;5.440;2023-06-22T00:36:56;100266.38;;;30.34;27.92
72024;BME280;59889;50.700;5.440;2023-06-22T00:39:21;100267.66;;;30.64;27.86
72024;BME280;59889;50.700;5.440;2023-06-22T00:41:47;100266.16;;;30.00;28.00
72024;BME280;59889;50.700;5.440;2023-06-22T00:44:13;100265.85;;;30.27;27.97
72024;BME280;59889;50.700;5.440;2023-06-22T00:46:39;100262.98;;;30.27;27.97
72024;BME280;59889;50.700;5.440;2023-06-22T00:49:05;100259.97;;;30.34;27.89
72024;BME280;59889;50.700;5.440;2023-06-22T00:51:31;100259.96;;;30.35;27.86
72024;BME280;59889;50.700;5.440;2023-06-22T00:53:56;100262.00;;;30.78;27.71
72024;BME280;59889;50.700;5.440;2023-06-22T00:56:23;100259.01;;;30.26;27.96
72024;BME280;59889;50.700;5.440;2023-06-22T00:58:48;100255.42;;;30.48;27.75
72024;BME280;59889;50.700;5.440;2023-06-22T01:01:14;100255.08;;;30.35;27.85
72024;BME280;59889;50.700;5.440;2023-06-22T01:03:40;100253.05;;;30.44;27.98
72024;BME280;59889;50.700;5.440;2023-06-22T01:06:10;100253.27;;;30.23;27.96
72024;BME280;59889;50.700;5.440;2023-06-22T01:08:38;100254.92;;;30.48;27.94
72024;BME280;59889;50.700;5.440;2023-06-22T01:11:01;100256.71;;;30.27;27.92
72024;BME280;59889;50.700;5.440;2023-06-22T01:13:29;100252.58;;;30.43;27.74
72024;BME280;59889;50.700;5.440;2023-06-22T01:15:53;100247.91;;;30.05;27.88
72024;BME280;59889;50.700;5.440;2023-06-22T01:18:17;100241.96;;;30.30;27.86
72024;BME280;59889;50.700;5.440;2023-06-22T01:20:41;100239.81;;;30.39;27.79
72024;BME280;59889;50.700;5.440;2023-06-22T01:23:11;100238.77;;;30.13;27.77
72024;BME280;59889;50.700;5.440;2023-06-22T01:25:40;100238.88;;;30.52;27.87
72024;BME280;59889;50.700;5.440;2023-06-22T01:28:03;100235.66;;;30.66;27.73
72024;BME280;59889;50.700;5.440;2023-06-22T01:30:24;100234.80;;;30.52;27.85
72024;BME280;59889;50.700;5.440;2023-06-22T01:32:50;100232.91;;;30.32;27.80
72024;BME280;59889;50.700;5.440;2023-06-22T01:35:16;100227.32;;;30.32;27.82
72024;BME280;59889;50.700;5.440;2023-06-22T01:37:41;100223.65;;;30.24;27.88
72024;BME280;59889;50.700;5.440;2023-06-22T01:40:08;100223.84;;;30.33;27.79
72024;BME280;59889;50.700;5.440;2023-06-22T01:42:34;100220.95;;;30.20;27.92
72024;BME280;59889;50.700;5.440;2023-06-22T01:44:59;100220.29;;;30.42;27.92
72024;BME280;59889;50.700;5.440;2023-06-22T01:47:25;100217.35;;;30.43;27.91
72024;BME280;59889;50.700;5.440;2023-06-22T01:49:51;100218.62;;;30.52;27.82
72024;BME280;59889;50.700;5.440;2023-06-22T01:52:16;100217.19;;;30.23;27.85
72024;BME280;59889;50.700;5.440;2023-06-22T01:54:42;100220.86;;;30.28;27.82
72024;BME280;59889;50.700;5.440;2023-06-22T01:57:08;100219.31;;;30.31;27.79
72024;BME280;59889;50.700;5.440;2023-06-22T01:59:38;100217.11;;;30.28;27.79
72024;BME280;59889;50.700;5.440;2023-06-22T02:02:04;100214.68;;;30.22;27.86
72024;BME280;59889;50.700;5.440;2023-06-22T02:04:27;100211.56;;;30.31;27.75
72024;BME280;59889;50.700;5.440;2023-06-22T02:06:54;100208.29;;;30.34;27.72
72024;BME280;59889;50.700;5.440;2023-06-22T02:09:19;100206.84;;;30.26;27.79
72024;BME280;59889;50.700;5.440;2023-06-22T02:11:44;100204.80;;;30.50;27.55
72024;BME280;59889;50.700;5.440;2023-06-22T02:14:09;100201.48;;;30.61;27.65
72024;BME280;59889;50.700;5.440;2023-06-22T02:16:35;100198.71;;;30.62;27.64
72024;BME280;59889;50.700;5.440;2023-06-22T02:19:01;100197.86;;;30.19;27.60
72024;BME280;59889;50.700;5.440;2023-06-22T02:21:26;100195.92;;;30.35;27.65
72024;BME280;59889;50.700;5.440;2023-06-22T02:23:51;100193.82;;;30.56;27.70
72024;BME280;59889;50.700;5.440;2023-06-22T02:26:18;100191.93;;;30.39;27.60
72024;BME280;59889;50.700;5.440;2023-06-22T02:28:44;100187.73;;;30.38;27.62
72024;BME280;59889;50.700;5.440;2023-06-22T02:31:09;100182.56;;;30.63;27.62
72024;BME280;59889;50.700;5.440;2023-06-22T02:33:35;100178.31;;;30.69;27.54
72024;BME280;59889;50.700;5.440;2023-06-22T02:36:01;100178.68;;;30.51;27.72
72024;BME280;59889;50.700;5.440;2023-06-22T02:38:26;100184.25;;;30.42;27.56
72024;BME280;59889;50.700;5.440;2023-06-22T02:40:52;100189.98;;;30.50;27.71
72024;BME280;59889;50.700;5.440;2023-06-22T02:43:18;100184.60;;;30.31;27.68
72024;BME280;59889;50.700;5.440;2023-06-22T02:45:44;100179.16;;;30.26;27.71
72024;BME280;59889;50.700;5.440;2023-06-22T02:48:10;100174.75;;;30.00;27.72
72024;BME280;59889;50.700;5.440;2023-06-22T02:50:36;100177.71;;;30.61;27.60
72024;BME280;59889;50.700;5.440;2023-06-22T02:53:01;100181.67;;;30.57;27.62
72024;BME280;59889;50.700;5.440;2023-06-22T02:55:27;100187.46;;;30.24;27.70
72024;BME280;59889;50.700;5.440;2023-06-22T02:57:53;100197.36;;;30.42;27.78
72024;BME280;59889;50.700;5.440;2023-06-22T03:00:19;100202.58;;;30.24;27.71
72024;BME280;59889;50.700;5.440;2023-06-22T03:02:45;100201.78;;;30.47;27.69
72024;BME280;59889;50.700;5.440;2023-06-22T03:05:10;100196.99;;;30.31;27.62
72024;BME280;59889;50.700;5.440;2023-06-22T03:07:36;100195.68;;;30.29;27.62
72024;BME280;59889;50.700;5.440;2023-06-22T03:10:03;100199.70;;;30.42;27.52
72024;BME280;59889;50.700;5.440;2023-06-22T03:12:28;100199.20;;;30.61;27.55
72024;BME280;59889;50.700;5.440;2023-06-22T03:14:54;100194.89;;;30.62;27.54
72024;BME280;59889;50.700;5.440;2023-06-22T03:17:19;100192.60;;;30.57;27.57
72024;BME280;59889;50.700;5.440;2023-06-22T03:19:45;100190.83;;;30.21;27.68
72024;BME280;59889;50.700;5.440;2023-06-22T03:22:11;100190.57;;;30.39;27.56
72024;BME280;59889;50.700;5.440;2023-06-22T03:24:37;100188.49;;;30.63;27.52
72024;BME280;59889;50.700;5.440;2023-06-22T03:27:03;100187.37;;;30.62;27.56
72024;BME280;59889;50.700;5.440;2023-06-22T03:29:29;100182.33;;;30.51;27.66
72024;BME280;59889;50.700;5.440;2023-06-22T03:31:54;100181.20;;;30.54;27.62
72024;BME280;59889;50.700;5.440;2023-06-22T03:34:20;100177.24;;;30.56;27.63
72024;BME280;59889;50.700;5.440;2023-06-22T03:36:46;100171.72;;;30.03;27.69
72024;BME280;59889;50.700;5.440;2023-06-22T03:39:12;100166.86;;;30.09;27.87
72024;BME280;59889;50.700;5.440;2023-06-22T03:41:37;100166.22;;;30.53;27.65
72024;BME280;59889;50.700;5.440;2023-06-22T03:44:03;100163.64;;;30.30;27.64
72024;BME280;59889;50.700;5.440;2023-06-22T03:46:29;100164.14;;;30.25;27.72
72024;BME280;59889;50.700;5.440;2023-06-22T03:48:55;100171.20;;;30.29;27.66
72024;BME280;59889;50.700;5.440;2023-06-22T03:51:21;100173.52;;;30.49;27.70
72024;BME280;59889;50.700;5.440;2023-06-22T03:53:46;100170.84;;;30.05;27.68
72024;BME280;59889;50.700;5.440;2023-06-22T03:56:12;100175.56;;;30.63;27.58
72024;BME280;59889;50.700;5.440;2023-06-22T03:58:38;100185.83;;;30.32;27.66
72024;BME280;59889;50.700;5.440;2023-06-22T04:01:04;100180.68;;;30.51;27.69
72024;BME280;59889;50.700;5.440;2023-06-22T04:03:30;100172.02;;;30.39;27.81
72024;BME280;59889;50.700;5.440;2023-06-22T04:05:55;100168.42;;;30.48;27.89
72024;BME280;59889;50.700;5.440;2023-06-22T04:08:21;100172.30;;;29.89;28.24
72024;BME280;59889;50.700;5.440;2023-06-22T04:10:47;100167.94;;;29.91;28.21
72024;BME280;59889;50.700;5.440;2023-06-22T04:13:13;100166.44;;;30.18;28.20
72024;BME280;59889;50.700;5.440;2023-06-22T04:15:39;100165.03;;;30.09;28.32
72024;BME280;59889;50.700;5.440;2023-06-22T04:18:05;100166.13;;;30.01;28.41
72024;BME280;59889;50.700;5.440;2023-06-22T04:20:31;100165.90;;;29.91;28.53
72024;BME280;59889;50.700;5.440;2023-06-22T04:22:56;100166.71;;;29.94;28.52
72024;BME280;59889;50.700;5.440;2023-06-22T04:25:22;100170.45;;;29.92;28.55
72024;BME280;59889;50.700;5.440;2023-06-22T04:27:48;100167.09;;;29.91;28.55
72024;BME280;59889;50.700;5.440;2023-06-22T04:30:13;100170.57;;;29.88;28.66
72024;BME280;59889;50.700;5.440;2023-06-22T04:32:39;100172.62;;;30.29;28.78
72024;BME280;59889;50.700;5.440;2023-06-22T04:35:05;100168.52;;;29.82;28.82
72024;BME280;59889;50.700;5.440;2023-06-22T04:37:30;100164.00;;;29.79;28.86
72024;BME280;59889;50.700;5.440;2023-06-22T04:39:56;100160.70;;;29.77;28.95
72024;BME280;59889;50.700;5.440;2023-06-22T04:42:22;100157.86;;;29.98;29.02
72024;BME280;59889;50.700;5.440;2023-06-22T04:44:48;100155.23;;;29.80;29.01
72024;BME280;59889;50.700;5.440;2023-06-22T04:47:14;100155.86;;;29.73;29.08
72024;BME280;59889;50.700;5.440;2023-06-22T04:49:39;100161.24;;;29.80;28.98
72024;BME280;59889;50.700;5.440;2023-06-22T04:52:07;100163.40;;;29.78;29.00
72024;BME280;59889;50.700;5.440;2023-06-22T04:54:31;100159.33;;;29.50;29.02
72024;BME280;59889;50.700;5.440;2023-06-22T04:56:57;100152.57;;;29.48;29.03
72024;BME280;59889;50.700;5.440;2023-06-22T04:59:23;100147.82;;;29.91;29.07
72024;BME280;59889;50.700;5.440;2023-06-22T05:01:48;100148.33;;;29.67;29.08
72024;BME280;59889;50.700;5.440;2023-06-22T05:04:14;100151.73;;;29.75;28.98
72024;BME280;59889;50.700;5.440;2023-06-22T05:06:40;100151.11;;;29.74;29.01
72024;BME280;59889;50.700;5.440;2023-06-22T05:09:06;100148.51;;;29.86;29.60
72024;BME280;59889;50.700;5.440;2023-06-22T05:11:32;100148.74;;;29.44;29.65
72024;BME280;59889;50.700;5.440;2023-06-22T05:13:58;100153.97;;;29.63;29.78
72024;BME280;59889;50.700;5.440;2023-06-22T05:16:24;100155.95;;;29.38;29.90
72024;BME280;59889;50.700;5.440;2023-06-22T05:18:51;100160.80;;;29.41;29.93
72024;BME280;59889;50.700;5.440;2023-06-22T05:21:15;100159.74;;;29.49;30.13
72024;BME280;59889;50.700;5.440;2023-06-22T05:23:41;100155.61;;;29.68;30.06
72024;BME280;59889;50.700;5.440;2023-06-22T05:26:07;100157.07;;;29.41;30.11
72024;BME280;59889;50.700;5.440;2023-06-22T05:28:32;100165.15;;;29.63;30.48
72024;BME280;59889;50.700;5.440;2023-06-22T05:30:58;100168.63;;;29.28;30.29
72024;BME280;59889;50.700;5.440;2023-06-22T05:33:24;100168.57;;;29.34;30.27
72024;BME280;59889;50.700;5.440;2023-06-22T05:35:50;100169.55;;;29.23;30.45
72024;BME280;59889;50.700;5.440;2023-06-22T05:38:15;100171.80;;;29.65;30.55
72024;BME280;59889;50.700;5.440;2023-06-22T05:40:41;100169.92;;;29.22;30.58
72024;BME280;59889;50.700;5.440;2023-06-22T05:43:07;100170.71;;;29.49;30.60
72024;BME280;59889;50.700;5.440;2023-06-22T05:45:33;100170.11;;;29.53;30.66
72024;BME280;59889;50.700;5.440;2023-06-22T05:47:59;100167.08;;;29.57;30.69
72024;BME280;59889;50.700;5.440;2023-06-22T05:50:25;100168.01;;;29.34;30.73
72024;BME280;59889;50.700;5.440;2023-06-22T05:52:50;100165.47;;;29.59;30.81
72024;BME280;59889;50.700;5.440;2023-06-22T05:55:16;100166.79;;;29.20;31.02
72024;BME280;59889;50.700;5.440;2023-06-22T05:57:42;100168.17;;;29.33;30.88
72024;BME280;59889;50.700;5.440;2023-06-22T06:00:08;100172.39;;;29.54;30.93
72024;BME280;59889;50.700;5.440;2023-06-22T06:02:33;100168.31;;;29.42;31.00
72024;BME280;59889;50.700;5.440;2023-06-22T06:04:59;100155.93;;;29.08;30.82
72024;BME280;59889;50.700;5.440;2023-06-22T06:07:25;100148.51;;;29.31;30.76
72024;BME280;59889;50.700;5.440;2023-06-22T06:09:51;100150.98;;;29.41;30.96
72024;BME280;59889;50.700;5.440;2023-06-22T06:12:17;100146.45;;;29.46;30.84
72024;BME280;59889;50.700;5.440;2023-06-22T06:14:42;100145.50;;;29.28;30.80
72024;BME280;59889;50.700;5.440;2023-06-22T06:17:08;100146.51;;;29.16;30.98
72024;BME280;59889;50.700;5.440;2023-06-22T06:19:34;100142.57;;;29.28;30.89
72024;BME280;59889;50.700;5.440;2023-06-22T06:21:59;100143.06;;;29.41;30.85
72024;BME280;59889;50.700;5.440;2023-06-22T06:24:24;100138.43;;;29.58;30.89
72024;BME280;59889;50.700;5.440;2023-06-22T06:26:50;100135.80;;;29.37;30.85
72024;BME280;59889;50.700;5.440;2023-06-22T06:29:16;100136.69;;;29.83;30.87
72024;BME280;59889;50.700;5.440;2023-06-22T06:31:42;100133.59;;;29.77;30.90
72024;BME280;59889;50.700;5.440;2023-06-22T06:34:07;100132.20;;;29.47;30.90
72024;BME280;59889;50.700;5.440;2023-06-22T06:36:33;100129.04;;;29.57;30.79
72024;BME280;59889;50.700;5.440;2023-06-22T06:38:59;100126.94;;;29.38;30.80
72024;BME280;59889;50.700;5.440;2023-06-22T06:41:24;100121.79;;;29.15;31.16
72024;BME280;59889;50.700;5.440;2023-06-22T07:13:15;100040.72;;;24.20;42.90
72024;BME280;59889;50.700;5.440;2023-06-22T07:15:40;100036.02;;;25.95;38.65
72024;BME280;59889;50.700;5.440;2023-06-22T07:18:05;100032.73;;;27.39;36.09
72024;BME280;59889;50.700;5.440;2023-06-22T07:20:30;100029.57;;;27.62;34.75
72024;BME280;59889;50.700;5.440;2023-06-22T07:22:56;100032.46;;;28.29;33.82
72024;BME280;59889;50.700;5.440;2023-06-22T07:25:21;100036.27;;;28.66;33.43
72024;BME280;59889;50.700;5.440;2023-06-22T07:27:57;100034.57;;;28.52;33.05
72024;BME280;59889;50.700;5.440;2023-06-22T07:30:13;100026.08;;;28.80;32.59
72024;BME280;59889;50.700;5.440;2023-06-22T07:32:38;100027.02;;;28.99;32.31
72024;BME280;59889;50.700;5.440;2023-06-22T07:35:03;100023.98;;;29.11;32.16
72024;BME280;59889;50.700;5.440;2023-06-22T07:37:29;100021.99;;;28.90;32.10
72024;BME280;59889;50.700;5.440;2023-06-22T07:39:53;100019.67;;;29.41;31.85
72024;BME280;59889;50.700;5.440;2023-06-22T07:42:19;100025.54;;;29.53;31.73
72024;BME280;59889;50.700;5.440;2023-06-22T07:44:44;100029.77;;;29.32;31.66
72024;BME280;59889;50.700;5.440;2023-06-22T07:47:10;100024.46;;;29.62;31.61
72024;BME280;59889;50.700;5.440;2023-06-22T07:49:35;100023.50;;;29.46;31.56
72024;BME280;59889;50.700;5.440;2023-06-22T07:52:01;100018.62;;;29.64;31.35
72024;BME280;59889;50.700;5.440;2023-06-22T07:54:26;100019.94;;;29.52;31.43
72024;BME280;59889;50.700;5.440;2023-06-22T07:56:51;100020.02;;;29.62;31.33
72024;BME280;59889;50.700;5.440;2023-06-22T07:59:17;100020.42;;;29.53;31.39
72024;BME280;59889;50.700;5.440;2023-06-22T08:01:42;100018.51;;;29.80;31.26
72024;BME280;59889;50.700;5.440;2023-06-22T08:04:07;100015.14;;;29.41;31.08
72024;BME280;59889;50.700;5.440;2023-06-22T08:06:32;100013.15;;;29.50;31.21
72024;BME280;59889;50.700;5.440;2023-06-22T08:08:58;100014.24;;;29.69;31.28
72024;BME280;59889;50.700;5.440;2023-06-22T08:11:23;100010.53;;;29.48;31.26
72024;BME280;59889;50.700;5.440;2023-06-22T08:13:49;100013.06;;;29.51;31.23
72024;BME280;59889;50.700;5.440;2023-06-22T08:16:14;100012.58;;;29.61;31.12
72024;BME280;59889;50.700;5.440;2023-06-22T08:18:40;100009.59;;;29.68;31.02
72024;BME280;59889;50.700;5.440;2023-06-22T08:21:05;100000.38;;;29.51;30.95
72024;BME280;59889;50.700;5.440;2023-06-22T08:23:31;99993.16;;;30.17;30.80
72024;BME280;59889;50.700;5.440;2023-06-22T08:25:56;99987.63;;;29.32;31.20
72024;BME280;59889;50.700;5.440;2023-06-22T08:28:21;99987.03;;;29.56;30.89
72024;BME280;59889;50.700;5.440;2023-06-22T08:30:46;99985.32;;;29.77;30.85
72024;BME280;59889;50.700;5.440;2023-06-22T08:33:11;99985.79;;;29.48;30.86
72024;BME280;59889;50.700;5.440;2023-06-22T08:35:37;99983.63;;;29.84;30.67
72024;BME280;59889;50.700;5.440;2023-06-22T08:38:03;99979.24;;;30.01;30.66
72024;BME280;59889;50.700;5.440;2023-06-22T08:40:28;99973.61;;;29.81;30.59
72024;BME280;59889;50.700;5.440;2023-06-22T08:42:53;99974.61;;;29.77;30.55
72024;BME280;59889;50.700;5.440;2023-06-22T08:45:18;99976.74;;;29.49;30.62
72024;BME280;59889;50.700;5.440;2023-06-22T08:47:43;99978.50;;;29.36;30.83
72024;BME280;59889;50.700;5.440;2023-06-22T08:50:09;99982.83;;;29.46;30.62
72024;BME280;59889;50.700;5.440;2023-06-22T08:52:33;99982.96;;;29.26;30.51
72024;BME280;59889;50.700;5.440;2023-06-22T08:54:59;99988.73;;;29.41;30.45
72024;BME280;59889;50.700;5.440;2023-06-22T08:57:24;99986.74;;;29.60;30.51
72024;BME280;59889;50.700;5.440;2023-06-22T08:59:49;99983.73;;;29.63;30.47
72024;BME280;59889;50.700;5.440;2023-06-22T09:02:15;99981.95;;;29.35;30.43
72024;BME280;59889;50.700;5.440;2023-06-22T09:04:40;99982.83;;;29.36;30.40
72024;BME280;59889;50.700;5.440;2023-06-22T09:07:05;99975.99;;;29.42;30.35
72024;BME280;59889;50.700;5.440;2023-06-22T09:09:31;99971.87;;;29.65;30.38
72024;BME280;59889;50.700;5.440;2023-06-22T09:11:56;99965.87;;;29.54;30.49
72024;BME280;59889;50.700;5.440;2023-06-22T09:14:21;99968.78;;;29.64;30.44
72024;BME280;59889;50.700;5.440;2023-06-22T09:16:46;99977.52;;;29.89;30.45
72024;BME280;59889;50.700;5.440;2023-06-22T09:19:12;99985.72;;;29.64;30.48
72024;BME280;59889;50.700;5.440;2023-06-22T09:21:37;99993.86;;;29.80;30.60
72024;BME280;59889;50.700;5.440;2023-06-22T09:24:02;100007.48;;;29.87;30.50
72024;BME280;59889;50.700;5.440;2023-06-22T09:26:27;100022.21;;;29.59;30.59
72024;BME280;59889;50.700;5.440;2023-06-22T09:28:53;100037.69;;;29.51;30.67
72024;BME280;59889;50.700;5.440;2023-06-22T09:31:18;100044.77;;;29.75;30.64
72024;BME280;59889;50.700;5.440;2023-06-22T09:33:43;100051.66;;;29.74;30.63
72024;BME280;59889;50.700;5.440;2023-06-22T09:36:09;100061.53;;;29.82;30.52
72024;BME280;59889;50.700;5.440;2023-06-22T09:38:34;100064.30;;;29.47;30.68
72024;BME280;59889;50.700;5.440;2023-06-22T09:40:59;100066.87;;;29.91;30.50
72024;BME280;59889;50.700;5.440;2023-06-22T09:43:24;100066.46;;;29.36;30.60
72024;BME280;59889;50.700;5.440;2023-06-22T09:45:49;100067.11;;;29.64;30.64
72024;BME280;59889;50.700;5.440;2023-06-22T09:48:14;100059.13;;;29.65;30.70
72024;BME280;59889;50.700;5.440;2023-06-22T09:50:40;100055.42;;;29.73;30.69
72024;BME280;59889;50.700;5.440;2023-06-22T09:53:05;100054.63;;;29.80;30.96
72024;BME280;59889;50.700;5.440;2023-06-22T09:55:31;100053.62;;;29.54;31.13
72024;BME280;59889;50.700;5.440;2023-06-22T09:57:56;100054.99;;;29.75;31.33
72024;BME280;59889;50.700;5.440;2023-06-22T10:00:21;100059.26;;;29.51;31.16
72024;BME280;59889;50.700;5.440;2023-06-22T10:02:47;100059.30;;;29.90;31.32
72024;BME280;59889;50.700;5.440;2023-06-22T10:05:12;100063.95;;;29.68;31.58
72024;BME280;59889;50.700;5.440;2023-06-22T10:07:37;100062.67;;;29.83;31.43
72024;BME280;59889;50.700;5.440;2023-06-22T10:10:03;100048.30;;;29.32;31.46
72024;BME280;59889;50.700;5.440;2023-06-22T10:12:28;100054.06;;;29.33;31.44
72024;BME280;59889;50.700;5.440;2023-06-22T10:14:53;100074.51;;;29.73;31.23
72024;BME280;59889;50.700;5.440;2023-06-22T10:17:18;100070.05;;;29.40;31.31
72024;BME280;59889;50.700;5.440;2023-06-22T10:19:44;100044.60;;;29.83;31.39
72024;BME280;59889;50.700;5.440;2023-06-22T10:22:09;100028.66;;;29.56;31.43
72024;BME280;59889;50.700;5.440;2023-06-22T10:24:34;100027.39;;;29.60;31.37
72024;BME280;59889;50.700;5.440;2023-06-22T10:27:00;100027.29;;;29.60;31.40
72024;BME280;59889;50.700;5.440;2023-06-22T10:29:25;100016.99;;;29.93;31.37
72024;BME280;59889;50.700;5.440;2023-06-22T10:31:50;100019.98;;;29.97;31.36
72024;BME280;59889;50.700;5.440;2023-06-22T10:34:15;100024.49;;;29.80;31.41
72024;BME280;59889;50.700;5.440;2023-06-22T10:36:40;100013.27;;;29.85;31.71
72024;BME280;59889;50.700;5.440;2023-06-22T10:39:05;100002.06;;;29.70;31.76
72024;BME280;59889;50.700;5.440;2023-06-22T10:41:30;100000.09;;;29.93;31.95
72024;BME280;59889;50.700;5.440;2023-06-22T10:43:55;99990.34;;;29.94;31.94
72024;BME280;59889;50.700;5.440;2023-06-22T10:46:21;99981.83;;;30.00;31.96
72024;BME280;59889;50.700;5.440;2023-06-22T10:48:46;99974.77;;;29.52;31.98
72024;BME280;59889;50.700;5.440;2023-06-22T10:51:11;99967.03;;;29.74;31.97
72024;BME280;59889;50.700;5.440;2023-06-22T10:53:36;99961.17;;;29.44;32.08
72024;BME280;59889;50.700;5.440;2023-06-22T10:56:01;99953.69;;;29.51;32.05
72024;BME280;59889;50.700;5.440;2023-06-22T10:58:27;99952.52;;;29.58;31.98
72024;BME280;59889;50.700;5.440;2023-06-22T11:00:52;99955.22;;;29.78;32.13
72024;BME280;59889;50.700;5.440;2023-06-22T11:03:17;99954.92;;;29.40;32.21
72024;BME280;59889;50.700;5.440;2023-06-22T11:05:42;99947.89;;;29.78;32.13
72024;BME280;59889;50.700;5.440;2023-06-22T11:08:08;99934.33;;;29.58;32.12
72024;BME280;59889;50.700;5.440;2023-06-22T11:10:33;99923.86;;;29.96;32.24
72024;BME280;59889;50.700;5.440;2023-06-22T11:12:58;99912.96;;;29.70;32.34
72024;BME280;59889;50.700;5.440;2023-06-22T11:15:24;99904.82;;;29.80;32.11
72024;BME280;59889;50.700;5.440;2023-06-22T11:17:49;99897.91;;;29.48;32.22
72024;BME280;59889;50.700;5.440;2023-06-22T11:20:14;99888.89;;;29.53;32.29
72024;BME280;59889;50.700;5.440;2023-06-22T11:22:40;99874.12;;;29.68;32.22
72024;BME280;59889;50.700;5.440;2023-06-22T11:25:06;99871.11;;;30.03;32.36
72024;BME280;59889;50.700;5.440;2023-06-22T11:27:30;99865.72;;;29.55;32.43
72024;BME280;59889;50.700;5.440;2023-06-22T11:29:56;99865.19;;;29.39;32.76
72024;BME280;59889;50.700;5.440;2023-06-22T11:32:22;99862.24;;;29.56;32.85
72024;BME280;59889;50.700;5.440;2023-06-22T11:34:46;99871.64;;;29.77;32.57
72024;BME280;59889;50.700;5.440;2023-06-22T11:37:11;99867.34;;;29.30;32.85
72024;BME280;59889;50.700;5.440;2023-06-22T11:39:37;99867.20;;;29.52;32.65
72024;BME280;59889;50.700;5.440;2023-06-22T11:42:02;99862.69;;;29.48;32.63
72024;BME280;59889;50.700;5.440;2023-06-22T11:44:28;99856.55;;;29.65;32.80
72024;BME280;59889;50.700;5.440;2023-06-22T11:46:53;99858.30;;;29.56;32.53
72024;BME280;59889;50.700;5.440;2023-06-22T11:49:18;99855.84;;;29.87;32.65
72024;BME280;59889;50.700;5.440;2023-06-22T11:51:43;99854.15;;;29.66;33.22
72024;BME280;59889;50.700;5.440;2023-06-22T11:54:09;99844.34;;;29.55;33.69
72024;BME280;59889;50.700;5.440;2023-06-22T11:56:34;99834.41;;;29.61;34.11
72024;BME280;59889;50.700;5.440;2023-06-22T11:59:00;99835.61;;;29.57;34.32
72024;BME280;59889;50.700;5.440;2023-06-22T12:01:26;99846.12;;;29.46;34.48
72024;BME280;59889;50.700;5.440;2023-06-22T12:03:51;99847.61;;;29.22;34.59
72024;BME280;59889;50.700;5.440;2023-06-22T12:06:17;99837.32;;;29.37;34.72
72024;BME280;59889;50.700;5.440;2023-06-22T12:08:42;99834.24;;;29.49;34.59
72024;BME280;59889;50.700;5.440;2023-06-22T12:11:08;99823.60;;;29.61;34.64
72024;BME280;59889;50.700;5.440;2023-06-22T12:13:33;99815.76;;;29.24;34.72
72024;BME280;59889;50.700;5.440;2023-06-22T12:15:58;99808.48;;;29.24;35.18
72024;BME280;59889;50.700;5.440;2023-06-22T12:18:24;99803.86;;;29.36;35.04
72024;BME280;59889;50.700;5.440;2023-06-22T12:20:49;99802.25;;;29.30;34.90
72024;BME280;59889;50.700;5.440;2023-06-22T12:23:15;99799.68;;;29.13;35.09
72024;BME280;59889;50.700;5.440;2023-06-22T12:25:40;99799.20;;;29.54;34.86
72024;BME280;59889;50.700;5.440;2023-06-22T12:28:05;99793.46;;;29.33;35.14
72024;BME280;59889;50.700;5.440;2023-06-22T12:30:30;99798.18;;;29.14;35.05
72024;BME280;59889;50.700;5.440;2023-06-22T12:32:56;99799.23;;;29.53;34.77
72024;BME280;59889;50.700;5.440;2023-06-22T12:35:21;99796.98;;;29.30;34.78
72024;BME280;59889;50.700;5.440;2023-06-22T12:37:47;99792.37;;;29.49;34.65
72024;BME280;59889;50.700;5.440;2023-06-22T12:40:12;99784.38;;;29.23;34.68
72024;BME280;59889;50.700;5.440;2023-06-22T12:42:38;99779.63;;;29.20;34.63
72024;BME280;59889;50.700;5.440;2023-06-22T12:45:04;99772.23;;;29.58;34.43
72024;BME280;59889;50.700;5.440;2023-06-22T12:47:28;99765.44;;;29.88;33.95
72024;BME280;59889;50.700;5.440;2023-06-22T12:49:53;99761.69;;;29.49;34.13
72024;BME280;59889;50.700;5.440;2023-06-22T12:52:19;99758.92;;;29.51;34.09
72024;BME280;59889;50.700;5.440;2023-06-22T12:54:45;99749.78;;;29.58;34.02
72024;BME280;59889;50.700;5.440;2023-06-22T12:57:10;99740.65;;;29.45;34.20
72024;BME280;59889;50.700;5.440;2023-06-22T12:59:36;99728.39;;;29.43;34.17
72024;BME280;59889;50.700;5.440;2023-06-22T13:02:01;99719.99;;;29.45;34.43
72024;BME280;59889;50.700;5.440;2023-06-22T13:04:26;99703.32;;;29.32;34.27
72024;BME280;59889;50.700;5.440;2023-06-22T13:06:51;99690.83;;;29.03;34.33
72024;BME280;59889;50.700;5.440;2023-06-22T13:09:18;99691.84;;;29.10;34.25
72024;BME280;59889;50.700;5.440;2023-06-22T13:11:43;99692.68;;;29.57;34.27